Time;durP1;ratioP1;P1;durP2;ratioP2;P2;SDS_P1;SDS_P2;PMS_P1;PMS_P2;Temp;Humidity;BMP_temperature;BMP_pressure;BME280_temperature;BME280_humidity;BME280_pressure;Samples;Min_cycle;Max_cycle;Signal;HPM_P1;HPM_P2
2022/06/30 00:00:08;;;;;;;16.50;2.00;;;;;;;48.00;5.17;100683.00;5094416;28;20055;-61
2022/06/30 00:02:35;;;;;;;6.28;1.70;;;;;;;47.84;5.87;100678.81;5109877;28;20027;-62
2022/06/30 00:05:02;;;;;;;8.45;1.63;;;;;;;48.47;5.67;100666.59;5116215;28;20030;-63
2022/06/30 00:07:28;;;;;;;7.25;1.80;;;;;;;49.49;4.81;100673.31;5115956;28;20028;-61
2022/06/30 00:09:55;;;;;;;12.32;1.98;;;;;;;47.63;6.27;100680.41;5098632;28;20415;-62
2022/06/30 00:12:22;;;;;;;16.15;2.10;;;;;;;47.32;6.65;100679.34;5095441;28;20089;-62
2022/06/30 00:14:49;;;;;;;11.68;2.10;;;;;;;46.79;6.39;100683.94;5095324;28;20062;-63
2022/06/30 00:17:15;;;;;;;11.07;2.33;;;;;;;47.32;6.63;100673.56;5095504;28;20032;-62
2022/06/30 00:19:45;;;;;;;29.17;3.30;;;;;;;46.99;6.23;100687.91;5095431;28;20032;-62
2022/06/30 00:22:13;;;;;;;20.90;3.15;;;;;;;46.53;6.56;100669.72;5095307;28;20036;-62
2022/06/30 00:24:40;;;;;;;34.35;3.33;;;;;;;46.03;6.60;100686.69;5095217;28;20020;-63
2022/06/30 00:27:07;;;;;;;21.48;3.00;;;;;;;46.40;6.50;100677.22;5095360;28;20032;-63
2022/06/30 00:29:33;;;;;;;21.85;3.10;;;;;;;45.76;7.24;100690.91;5095087;28;20032;-63
2022/06/30 00:32:00;;;;;;;19.27;2.65;;;;;;;45.48;7.25;100685.69;5103221;28;20032;-63
2022/06/30 00:34:27;;;;;;;18.02;2.75;;;;;;;46.61;6.49;100688.03;5114193;28;20108;-63
2022/06/30 00:36:54;;;;;;;15.23;2.50;;;;;;;45.93;6.71;100685.25;5115458;28;20039;-62
2022/06/30 00:39:21;;;;;;;12.60;2.05;;;;;;;45.43;7.41;100688.53;5102841;28;20029;-63
2022/06/30 00:41:48;;;;;;;16.40;2.50;;;;;;;45.48;7.00;100699.28;5094884;28;20028;-63
2022/06/30 00:44:15;;;;;;;13.98;2.20;;;;;;;45.81;6.72;100698.00;5094635;28;20081;-62
2022/06/30 00:46:42;;;;;;;19.77;2.67;;;;;;;45.43;6.74;100691.41;5093839;28;20028;-63
2022/06/30 00:49:08;;;;;;;18.20;2.83;;;;;;;45.65;6.84;100694.47;5094777;28;20531;-63
2022/06/30 00:51:36;;;;;;;22.10;2.70;;;;;;;45.30;7.10;100696.75;5095136;28;20081;-63
2022/06/30 00:54:06;;;;;;;25.75;2.88;;;;;;;45.34;6.88;100682.97;5094225;28;20012;-63
2022/06/30 00:56:43;;;;;;;27.13;2.60;;;;;;;44.07;7.72;100698.03;5094198;28;20412;-64
2022/06/30 00:59:13;;;;;;;22.10;2.88;;;;;;;44.10;7.56;100702.78;5093495;28;20111;-63
2022/06/30 01:01:42;;;;;;;18.83;2.97;;;;;;;44.10;7.78;100708.50;5095678;28;20024;-62
2022/06/30 01:04:10;;;;;;;14.63;2.20;;;;;;;44.07;7.47;100698.81;5107963;28;20501;-63
2022/06/30 01:06:42;;;;;;;17.67;2.75;;;;;;;43.95;8.02;100692.13;5093769;28;20105;-64
2022/06/30 01:09:09;;;;;;;26.42;2.85;;;;;;;43.52;7.98;100698.69;5093259;28;20440;-64
2022/06/30 01:14:24;;;;;;;17.23;2.70;;;;;;;43.61;8.19;100707.16;5092846;28;20081;-63
2022/06/30 01:16:50;;;;;;;20.25;3.42;;;;;;;43.97;7.97;100712.47;5093749;28;20042;-62
2022/06/30 01:19:20;;;;;;;24.20;4.53;;;;;;;43.84;8.16;100717.75;5093497;28;20067;-64
2022/06/30 01:22:03;;;;;;;22.98;3.10;;;;;;;43.08;8.35;100700.22;5089903;28;20028;-63
2022/06/30 01:24:29;;;;;;;25.03;3.00;;;;;;;42.99;8.51;100719.53;5092463;28;20082;-63
2022/06/30 01:26:57;;;;;;;21.30;3.20;;;;;;;42.84;8.42;100722.34;5092811;28;20081;-61
2022/06/30 01:29:25;;;;;;;22.48;2.80;;;;;;;42.47;8.55;100716.06;5091069;28;20048;-62
2022/06/30 01:31:51;;;;;;;23.50;2.63;;;;;;;42.46;8.31;100723.84;5089854;28;20426;-62
2022/06/30 01:34:20;;;;;;;25.38;3.47;;;;;;;42.29;8.43;100730.47;5092905;28;20166;-63
2022/06/30 01:36:47;;;;;;;50.80;4.85;;;;;;;42.23;8.04;100734.00;5093136;28;20064;-64
2022/06/30 01:39:14;;;;;;;30.20;3.28;;;;;;;42.09;8.43;100728.19;5080690;28;20094;-63
2022/06/30 01:41:40;;;;;;;42.58;4.75;;;;;;;42.13;8.31;100743.88;5081792;28;20470;-63
2022/06/30 01:44:07;;;;;;;34.72;4.30;;;;;;;42.28;8.59;100732.53;5085162;28;20052;-63
2022/06/30 01:46:34;;;;;;;24.50;2.75;;;;;;;41.82;8.89;100746.19;5087478;28;20024;-63
2022/06/30 01:49:01;;;;;;;41.15;3.88;;;;;;;41.88;8.72;100741.44;5077180;28;20028;-61
2022/06/30 01:51:27;;;;;;;25.20;3.92;;;;;;;41.70;8.81;100735.78;5075540;28;20024;-61
2022/06/30 01:53:54;;;;;;;27.88;4.00;;;;;;;41.63;9.01;100754.78;5075726;28;20025;-63
2022/06/30 01:56:21;;;;;;;28.77;3.38;;;;;;;41.43;9.04;100751.66;5078392;28;20070;-62
2022/06/30 01:58:47;;;;;;;19.15;3.22;;;;;;;41.42;9.05;100767.19;5072804;28;20032;-62
2022/06/30 02:01:15;;;;;;;38.88;4.10;;;;;;;41.01;9.35;100755.16;5073973;28;20050;-61
2022/06/30 02:03:42;;;;;;;27.70;5.32;;;;;;;40.89;9.58;100758.16;5074687;28;20516;-62
2022/06/30 02:06:09;;;;;;;29.63;5.28;;;;;;;40.92;10.12;100763.69;5072551;28;20052;-61
2022/06/30 02:08:36;;;;;;;33.50;4.50;;;;;;;40.67;10.34;100775.34;5074583;28;20119;-62
2022/06/30 02:11:02;;;;;;;33.70;4.35;;;;;;;40.54;10.05;100771.84;5074822;28;20029;-61
2022/06/30 02:13:29;;;;;;;36.28;4.22;;;;;;;40.44;10.48;100780.38;5074121;28;20047;-62
2022/06/30 02:15:56;;;;;;;33.97;4.15;;;;;;;40.27;10.71;100790.41;5074611;28;20107;-62
2022/06/30 02:18:22;;;;;;;22.85;3.17;;;;;;;40.16;10.93;100790.03;5078156;28;20028;-61
2022/06/30 02:20:49;;;;;;;20.45;4.35;;;;;;;40.13;10.63;100799.53;5079468;28;20081;-61
2022/06/30 02:23:15;;;;;;;26.35;3.70;;;;;;;40.17;10.46;100798.13;5083459;28;20044;-61
2022/06/30 02:25:42;;;;;;;21.65;3.05;;;;;;;39.96;10.76;100798.16;5080032;28;20419;-61
2022/06/30 02:28:09;;;;;;;24.60;3.70;;;;;;;39.75;11.13;100799.75;5077058;28;20035;-61
2022/06/30 02:30:38;;;;;;;25.55;3.47;;;;;;;39.67;10.88;100807.75;5074210;28;20024;-61
2022/06/30 02:33:05;;;;;;;28.15;3.35;;;;;;;39.58;10.71;100814.19;5075536;28;20393;-61
2022/06/30 02:35:32;;;;;;;19.17;2.83;;;;;;;39.46;11.02;100802.84;5079068;28;20032;-61
2022/06/30 02:38:09;;;;;;;23.40;3.75;;;;;;;39.43;11.05;100815.16;5077629;28;20032;-61
2022/06/30 02:40:36;;;;;;;29.05;3.50;;;;;;;39.33;11.17;100816.34;5075154;28;20036;-61
2022/06/30 02:43:03;;;;;;;18.45;2.72;;;;;;;39.22;11.24;100816.72;5076236;28;20025;-61
2022/06/30 02:45:30;;;;;;;15.85;2.90;;;;;;;39.10;10.83;100815.50;5078516;28;20463;-62
2022/06/30 02:47:58;;;;;;;17.65;3.20;;;;;;;39.04;10.92;100828.69;5072997;28;20020;-61
2022/06/30 02:50:25;;;;;;;22.98;3.38;;;;;;;38.95;11.04;100822.91;5077689;28;20066;-62
2022/06/30 02:52:52;;;;;;;31.33;3.38;;;;;;;38.85;11.06;100832.59;5075997;28;20032;-62
2022/06/30 02:55:19;;;;;;;18.05;2.60;;;;;;;38.76;11.54;100846.69;5077425;28;20033;-61
2022/06/30 02:57:45;;;;;;;17.27;2.80;;;;;;;38.77;11.55;100836.91;5078578;28;20020;-61
2022/06/30 03:00:12;;;;;;;20.70;3.00;;;;;;;38.71;11.81;100845.22;5078534;28;20031;-61
2022/06/30 03:02:40;;;;;;;22.67;3.47;;;;;;;38.66;11.90;100848.66;5073600;28;20025;-61
2022/06/30 03:05:08;;;;;;;30.38;3.90;;;;;;;38.54;11.82;100844.53;5073219;28;20548;-61
2022/06/30 03:07:35;;;;;;;25.42;2.90;;;;;;;38.45;12.16;100841.59;5077832;28;20052;-61
2022/06/30 03:10:02;;;;;;;15.65;2.90;;;;;;;38.43;12.22;100852.63;5077774;28;20036;-60
2022/06/30 03:12:28;;;;;;;19.52;2.63;;;;;;;38.37;12.37;100845.88;5080133;28;20381;-61
2022/06/30 03:14:56;;;;;;;12.07;2.50;;;;;;;38.32;12.86;100857.81;5073789;28;20441;-60
2022/06/30 03:17:24;;;;;;;27.85;3.03;;;;;;;38.29;13.12;100870.09;5078951;28;20103;-61
2022/06/30 03:19:51;;;;;;;24.90;2.90;;;;;;;38.18;13.25;100881.75;5085759;28;20029;-61
2022/06/30 03:22:17;;;;;;;14.70;2.45;;;;;;;38.19;13.57;100879.72;5091605;28;20031;-60
2022/06/30 03:24:44;;;;;;;32.17;3.70;;;;;;;37.89;13.65;100867.59;5091668;28;20040;-61
2022/06/30 03:27:11;;;;;;;29.15;3.67;;;;;;;37.89;13.70;100884.63;5087560;28;20025;-62
2022/06/30 03:29:40;;;;;;;27.88;4.07;;;;;;;37.85;13.62;100895.25;5088321;28;20040;-63
2022/06/30 03:32:09;;;;;;;21.60;4.55;;;;;;;37.84;14.09;100905.03;5089822;28;20031;-62
2022/06/30 03:34:35;;;;;;;30.33;6.93;;;;;;;37.66;14.46;100910.38;5085221;28;20119;-62
2022/06/30 03:37:02;;;;;;;22.13;3.88;;;;;;;37.63;14.43;100914.91;5081840;28;20040;-62
2022/06/30 03:39:29;;;;;;;13.23;2.55;;;;;;;37.65;14.31;100923.75;5089485;28;20024;-62
2022/06/30 03:41:55;;;;;;;15.02;2.38;;;;;;;37.58;14.60;100923.16;5085751;28;20085;-62
2022/06/30 03:44:22;;;;;;;16.90;2.40;;;;;;;37.43;14.86;100934.06;5083465;28;20481;-62
2022/06/30 03:46:49;;;;;;;13.10;2.30;;;;;;;37.50;14.69;100950.91;5084724;28;20153;-61
2022/06/30 03:49:16;;;;;;;14.98;2.60;;;;;;;37.36;15.15;100945.63;5088937;28;20024;-60
2022/06/30 03:51:43;;;;;;;15.48;2.50;;;;;;;37.30;14.72;100945.34;5086220;28;20218;-62
2022/06/30 03:54:10;;;;;;;25.65;2.95;;;;;;;37.30;14.78;100928.31;5083688;28;20035;-62
2022/06/30 03:56:37;;;;;;;14.52;2.55;;;;;;;37.35;15.09;100942.00;5085176;28;20118;-62
2022/06/30 03:59:04;;;;;;;17.30;2.50;;;;;;;37.29;14.81;100940.91;5085723;28;20730;-63
2022/06/30 04:01:31;;;;;;;13.68;2.13;;;;;;;37.33;14.82;100946.47;5078074;28;20090;-62
2022/06/30 04:03:57;;;;;;;19.38;2.40;;;;;;;37.23;15.13;100939.81;5081053;28;20115;-62
2022/06/30 04:06:27;;;;;;;18.55;3.45;;;;;;;37.24;15.29;100955.59;5078034;28;20016;-62
2022/06/30 04:08:53;;;;;;;14.98;2.88;;;;;;;37.19;15.40;100958.97;5079513;28;20128;-62
2022/06/30 04:11:26;;;;;;;20.98;2.97;;;;;;;37.21;15.26;100945.94;5081490;28;20482;-62
2022/06/30 04:13:53;;;;;;;16.08;2.92;;;;;;;36.90;15.83;100914.31;5080072;28;20555;-62
2022/06/30 04:16:22;;;;;;;14.90;2.92;;;;;;;37.01;15.68;100933.09;5085975;28;20036;-60
2022/06/30 04:18:50;;;;;;;13.07;2.70;;;;;;;37.02;15.80;100951.69;5066872;28;20033;-62
2022/06/30 04:21:16;;;;;;;15.00;3.28;;;;;;;36.95;16.15;100946.19;5076203;28;20029;-60
2022/06/30 04:23:44;;;;;;;23.88;3.00;;;;;;;36.99;16.28;100964.72;5081277;28;20035;-61
2022/06/30 04:26:10;;;;;;;12.73;2.65;;;;;;;36.85;16.13;100951.66;5083743;28;20024;-62
2022/06/30 04:28:38;;;;;;;22.27;2.80;;;;;;;36.89;16.79;100963.72;5084271;28;20132;-60
2022/06/30 04:33:50;;;;;;;12.02;2.72;;;;;;;36.68;16.75;100981.16;5079202;28;20535;-60
2022/06/30 04:36:19;;;;;;;25.23;5.60;;;;;;;36.45;16.65;100973.59;5079636;28;20127;-61
2022/06/30 04:38:46;;;;;;;16.75;2.60;;;;;;;36.28;16.81;100969.88;5078680;28;20474;-60
2022/06/30 04:41:25;;;;;;;18.63;2.78;;;;;;;36.28;17.15;100975.53;5085080;28;20043;-61
2022/06/30 04:43:57;;;;;;;11.05;2.33;;;;;;;36.33;17.15;100979.09;5093349;28;20130;-61
2022/06/30 04:46:25;;;;;;;15.38;2.50;;;;;;;36.32;17.58;100986.78;5093802;28;20060;-60
2022/06/30 04:48:54;;;;;;;17.75;2.58;;;;;;;36.29;17.05;100985.59;5093060;28;20054;-61
2022/06/30 04:51:27;;;;;;;9.60;1.90;;;;;;;36.23;17.38;100984.50;5089532;28;20043;-61
2022/06/30 04:53:54;;;;;;;8.30;1.88;;;;;;;36.18;17.13;100992.72;5092558;28;20035;-61
2022/06/30 04:56:23;;;;;;;12.23;2.10;;;;;;;36.18;17.42;100979.34;5093880;28;20114;-61
2022/06/30 04:58:50;;;;;;;14.38;2.13;;;;;;;36.20;17.53;100988.22;5093513;28;20090;-61
2022/06/30 05:01:17;;;;;;;14.88;2.83;;;;;;;36.06;17.31;100984.84;5087452;28;20016;-61
2022/06/30 05:03:43;;;;;;;15.38;2.55;;;;;;;35.87;17.49;100983.59;5096992;28;20491;-61
2022/06/30 05:06:10;;;;;;;15.10;2.20;;;;;;;35.92;18.14;100985.94;5084714;28;20533;-60
2022/06/30 05:08:37;;;;;;;10.70;1.98;;;;;;;35.99;17.74;100991.47;5092858;28;20044;-60
2022/06/30 05:11:04;;;;;;;13.70;2.25;;;;;;;36.02;17.70;100988.56;5093306;28;20127;-61
2022/06/30 05:13:31;;;;;;;17.58;2.22;;;;;;;35.97;17.88;100996.75;5085496;28;20423;-61
2022/06/30 05:15:59;;;;;;;13.75;2.17;;;;;;;35.83;17.88;100983.63;5088501;28;20027;-61
2022/06/30 05:18:27;;;;;;;18.70;2.50;;;;;;;35.76;18.01;101005.59;5088937;28;20042;-60
2022/06/30 05:20:57;;;;;;;13.15;5.53;;;;;;;35.52;18.55;101008.41;5093577;28;20070;-61
2022/06/30 05:23:24;;;;;;;11.27;5.10;;;;;;;35.42;18.57;100998.91;5092518;28;20122;-60
2022/06/30 05:28:36;;;;;;;8.98;1.88;;;;;;;35.42;18.75;101003.75;5077337;28;20043;-60
2022/06/30 05:31:03;;;;;;;9.48;1.65;;;;;;;35.58;18.60;101015.19;5072057;28;20025;-61
2022/06/30 05:33:30;;;;;;;7.68;1.75;;;;;;;35.48;18.62;101012.53;5082789;28;20037;-60
2022/06/30 05:35:58;;;;;;;10.88;1.70;;;;;;;35.47;18.67;101023.03;5090547;28;20036;-59
2022/06/30 05:38:25;;;;;;;10.40;2.03;;;;;;;35.40;18.44;101011.88;5091990;28;20028;-59
2022/06/30 05:40:52;;;;;;;6.90;1.73;;;;;;;35.45;19.07;101019.06;5093387;28;20020;-59
2022/06/30 05:43:18;;;;;;;10.73;1.95;;;;;;;35.46;18.85;101017.81;5085183;28;20434;-60
2022/06/30 05:45:46;;;;;;;10.70;2.03;;;;;;;35.42;19.16;101015.06;5090161;28;20031;-60
2022/06/30 05:48:13;;;;;;;9.68;4.57;;;;;;;35.28;18.94;101012.41;5087646;28;20044;-60
2022/06/30 05:50:40;;;;;;;7.18;1.85;;;;;;;35.33;18.88;101028.88;5088923;28;20098;-60
2022/06/30 05:53:07;;;;;;;12.77;2.15;;;;;;;35.19;19.47;101023.44;5090011;28;20065;-60
2022/06/30 05:55:34;;;;;;;10.05;2.28;;;;;;;35.08;19.49;101024.44;5084984;28;20028;-60
2022/06/30 05:58:01;;;;;;;10.68;1.85;;;;;;;35.10;19.62;101026.81;5092357;28;20043;-60
2022/06/30 06:00:30;;;;;;;9.60;1.90;;;;;;;35.01;19.60;101018.88;5088376;28;20036;-60
2022/06/30 06:02:57;;;;;;;10.60;2.20;;;;;;;34.96;19.65;101018.53;5083436;28;20492;-60
2022/06/30 06:05:25;;;;;;;6.10;1.55;;;;;;;34.99;19.58;101014.88;5093687;28;20452;-60
2022/06/30 06:07:52;;;;;;;12.45;1.60;;;;;;;35.04;19.63;101012.38;5091445;28;20466;-60
2022/06/30 06:10:19;;;;;;;11.73;1.92;;;;;;;34.91;20.02;101014.19;5093517;28;20028;-60
2022/06/30 06:12:45;;;;;;;8.63;1.58;;;;;;;34.90;20.16;101006.94;5089013;28;20458;-60
2022/06/30 06:15:14;;;;;;;8.88;1.92;;;;;;;34.89;19.97;101005.34;5092952;28;20399;-61
2022/06/30 06:17:48;;;;;;;15.30;2.33;;;;;;;34.84;20.10;101015.06;5083992;28;20058;-60
2022/06/30 06:20:17;;;;;;;5.25;1.70;;;;;;;34.68;20.24;101019.72;5073511;28;20103;-61
2022/06/30 06:22:44;;;;;;;24.23;2.20;;;;;;;34.45;20.52;101020.38;5073257;28;20057;-60
2022/06/30 06:25:12;;;;;;;13.82;2.20;;;;;;;34.45;21.12;101015.53;5071943;28;20048;-61
2022/06/30 06:27:41;;;;;;;18.05;3.05;;;;;;;34.67;21.42;101020.94;5094079;28;20508;-61
2022/06/30 06:30:10;;;;;;;16.63;3.30;;;;;;;34.47;21.74;101015.13;5097022;28;20058;-61
2022/06/30 06:32:38;;;;;;;12.00;2.90;;;;;;;34.66;22.00;101014.50;5097943;28;20031;-61
2022/06/30 06:35:06;;;;;;;13.05;2.20;;;;;;;34.60;21.97;101018.19;5106483;28;20043;-61
2022/06/30 06:37:32;;;;;;;12.25;2.22;;;;;;;34.59;22.33;101025.06;5092448;28;20088;-61
2022/06/30 06:40:00;;;;;;;13.32;2.50;;;;;;;34.60;22.29;101013.34;5093455;28;20032;-61
2022/06/30 06:42:26;;;;;;;20.20;2.83;;;;;;;34.39;22.58;101019.25;5090016;28;20027;-61
2022/06/30 06:44:55;;;;;;;17.20;2.67;;;;;;;34.34;23.26;101026.16;5091278;28;20385;-60
2022/06/30 06:47:22;;;;;;;12.88;2.63;;;;;;;34.21;23.98;101017.41;5092727;28;20026;-60
2022/06/30 06:49:49;;;;;;;17.80;3.30;;;;;;;34.05;24.07;101031.28;5089830;28;20454;-62
2022/06/30 06:52:15;;;;;;;28.55;3.80;;;;;;;34.01;24.73;101030.53;5090919;28;20031;-60
2022/06/30 06:54:42;;;;;;;18.67;3.42;;;;;;;33.94;25.60;101042.69;5092582;28;20038;-61
2022/06/30 06:57:09;;;;;;;19.02;3.53;;;;;;;34.02;26.21;101037.75;5089762;28;20102;-60
2022/06/30 06:59:37;;;;;;;23.63;3.33;;;;;;;34.03;26.38;101039.38;5092736;28;20531;-60
2022/06/30 07:02:04;;;;;;;15.48;3.60;;;;;;;34.03;26.41;101047.03;5078548;28;20036;-60
2022/06/30 07:04:31;;;;;;;14.65;3.15;;;;;;;33.96;26.53;101045.09;5083387;28;20551;-61
2022/06/30 07:06:57;;;;;;;15.60;3.30;;;;;;;33.86;26.16;101043.97;5091957;28;20095;-59
2022/06/30 07:09:24;;;;;;;14.10;2.80;;;;;;;33.85;26.23;101039.53;5090812;28;20051;-60
2022/06/30 07:11:51;;;;;;;11.10;2.70;;;;;;;34.07;25.85;101036.50;5091890;28;20028;-59
2022/06/30 07:14:18;;;;;;;21.40;3.42;;;;;;;34.04;27.27;101040.16;5092498;28;20032;-59
2022/06/30 07:16:45;;;;;;;18.83;3.70;;;;;;;33.86;28.45;101045.97;5092750;28;20020;-59
2022/06/30 07:19:11;;;;;;;25.70;4.30;;;;;;;33.63;27.70;101052.19;5092799;28;20039;-59
2022/06/30 07:21:38;;;;;;;21.15;4.05;;;;;;;33.45;27.79;101049.50;5086238;28;20060;-61
2022/06/30 07:24:05;;;;;;;28.70;4.35;;;;;;;33.26;27.77;101048.00;5077758;28;20036;-60
2022/06/30 07:26:31;;;;;;;24.90;4.57;;;;;;;33.10;28.07;101050.50;5078276;28;20028;-59
2022/06/30 07:28:58;;;;;;;26.67;4.50;;;;;;;33.03;29.16;101056.97;5090763;28;20032;-60
2022/06/30 07:31:25;;;;;;;27.45;4.38;;;;;;;32.96;29.38;101051.38;5091272;28;20482;-60
2022/06/30 07:33:52;;;;;;;24.13;4.18;;;;;;;32.92;30.01;101061.06;5102232;28;20066;-60
2022/06/30 07:36:18;;;;;;;20.13;4.10;;;;;;;32.73;31.42;101051.88;5111705;28;20040;-59
2022/06/30 07:38:47;;;;;;;18.13;3.78;;;;;;;32.62;31.94;101051.09;5111447;28;20032;-58
2022/06/30 07:41:14;;;;;;;19.00;3.17;;;;;;;32.69;32.13;101062.34;5111614;28;20441;-58
2022/06/30 07:43:41;;;;;;;15.45;3.30;;;;;;;32.58;32.65;101053.13;5111348;28;20024;-58
2022/06/30 07:46:08;;;;;;;10.85;3.00;;;;;;;32.45;32.81;101057.59;5111067;28;20077;-58
2022/06/30 07:48:35;;;;;;;20.73;3.75;;;;;;;32.52;33.03;101059.59;5111200;28;20195;-58
2022/06/30 07:51:02;;;;;;;12.77;3.20;;;;;;;32.41;33.45;101077.31;5111139;28;20020;-58
2022/06/30 07:53:29;;;;;;;10.98;2.78;;;;;;;32.39;33.57;101070.47;5111108;28;20027;-58
2022/06/30 07:55:56;;;;;;;10.95;2.88;;;;;;;32.37;33.90;101070.88;5111431;28;20027;-59
2022/06/30 07:58:22;;;;;;;11.50;2.67;;;;;;;32.33;33.74;101075.72;5127612;28;20132;-58
2022/06/30 08:00:49;;;;;;;15.95;2.42;;;;;;;32.25;33.89;101073.28;5112795;28;20027;-58
2022/06/30 08:03:16;;;;;;;15.48;3.13;;;;;;;32.16;34.65;101065.28;5107442;28;20436;-58
2022/06/30 08:05:42;;;;;;;15.10;3.10;;;;;;;32.12;34.40;101070.09;5095085;28;20107;-58
2022/06/30 08:08:09;;;;;;;14.43;2.90;;;;;;;32.06;34.59;101068.91;5094615;28;20032;-59
2022/06/30 08:10:36;;;;;;;24.58;2.80;;;;;;;32.00;35.06;101074.13;5095790;28;20030;-59
2022/06/30 08:13:03;;;;;;;9.13;2.65;;;;;;;31.92;35.69;101077.34;5095718;28;20051;-59
2022/06/30 08:15:29;;;;;;;17.48;2.67;;;;;;;31.91;35.48;101073.72;5095787;28;20043;-58
2022/06/30 08:18:01;;;;;;;10.00;2.97;;;;;;;31.85;35.57;101080.97;5095908;28;20559;-59
2022/06/30 08:20:29;;;;;;;9.30;2.38;;;;;;;31.89;35.89;101078.16;5095768;28;20401;-59
2022/06/30 08:22:55;;;;;;;13.77;2.35;;;;;;;31.90;35.46;101080.56;5095584;28;20055;-59
2022/06/30 08:25:22;;;;;;;12.25;2.60;;;;;;;31.82;36.26;101070.53;5095840;28;20449;-59
2022/06/30 08:27:49;;;;;;;12.82;2.88;;;;;;;31.67;36.27;101071.69;5095548;28;20028;-58
2022/06/30 08:30:15;;;;;;;17.23;3.38;;;;;;;31.72;36.10;101066.50;5095492;28;20040;-58
2022/06/30 08:32:43;;;;;;;11.55;2.67;;;;;;;31.66;36.70;101075.72;5095393;28;20081;-58
2022/06/30 08:35:09;;;;;;;13.23;2.97;;;;;;;31.68;36.92;101073.28;5114763;28;20162;-58
2022/06/30 08:37:36;;;;;;;17.52;3.05;;;;;;;31.63;37.09;101079.31;5115701;27;20036;-59
2022/06/30 08:42:48;;;;;;;15.15;3.33;;;;;;;31.73;36.69;101072.91;5115881;28;20165;-58
2022/06/30 08:45:19;;;;;;;11.85;3.38;;;;;;;31.68;36.94;101079.72;5115906;28;20497;-59
2022/06/30 08:47:46;;;;;;;17.77;3.38;;;;;;;31.61;37.33;101074.09;5115539;28;20070;-59
2022/06/30 08:50:15;;;;;;;13.73;3.10;;;;;;;31.61;37.31;101073.31;5115465;28;20032;-59
2022/06/30 08:52:51;;;;;;;16.17;3.50;;;;;;;31.63;37.07;101070.88;5115594;28;20080;-58
2022/06/30 08:55:23;;;;;;;15.90;3.30;;;;;;;31.60;36.68;101055.63;5115555;28;20043;-59
2022/06/30 08:57:51;;;;;;;13.63;3.00;;;;;;;31.52;37.20;101062.44;5115437;27;20032;-59
2022/06/30 09:00:18;;;;;;;14.18;3.40;;;;;;;31.38;37.28;101060.41;5115286;28;20054;-59
2022/06/30 09:02:46;;;;;;;13.60;2.53;;;;;;;31.33;37.29;101069.22;5115378;28;20115;-58
2022/06/30 09:05:14;;;;;;;12.63;2.42;;;;;;;31.36;37.84;101074.06;5096436;28;20035;-59
2022/06/30 09:07:42;;;;;;;12.57;2.42;;;;;;;31.34;37.80;101070.84;5094757;28;20036;-59
2022/06/30 09:10:09;;;;;;;10.13;2.28;;;;;;;31.31;37.44;101077.25;5094602;28;20351;-59
2022/06/30 09:12:35;;;;;;;12.93;2.08;;;;;;;31.34;37.42;101062.41;5094612;28;20081;-59
2022/06/30 09:15:03;;;;;;;9.68;2.22;;;;;;;31.43;37.43;101076.91;5094353;28;20028;-59
2022/06/30 09:17:30;;;;;;;8.90;2.05;;;;;;;31.25;37.89;101064.81;5094478;28;20035;-59
2022/06/30 09:19:59;;;;;;;14.05;2.38;;;;;;;31.16;38.02;101081.19;5094566;28;20493;-59
2022/06/30 09:22:40;;;;;;;7.60;2.20;;;;;;;31.11;38.22;101078.78;5094418;28;20040;-60
2022/06/30 09:25:09;;;;;;;8.73;2.05;;;;;;;31.01;38.56;101087.97;5094303;28;20040;-59
2022/06/30 09:27:41;;;;;;;10.27;2.20;;;;;;;30.96;38.36;101083.53;5094515;28;20024;-59
2022/06/30 09:30:12;;;;;;;14.88;2.35;;;;;;;31.00;38.04;101086.34;5094441;28;20032;-59
2022/06/30 09:32:56;;;;;;;10.48;2.33;;;;;;;31.02;37.70;101086.75;5093208;28;20043;-59
2022/06/30 09:35:29;;;;;;;9.90;2.13;;;;;;;31.05;37.46;101085.97;5112164;28;20055;-59
2022/06/30 09:38:08;;;;;;;8.77;1.90;;;;;;;31.10;37.72;101082.78;5114242;28;20169;-60
2022/06/30 09:40:38;;;;;;;20.08;2.40;;;;;;;31.03;37.93;101077.13;5114497;28;20059;-60
2022/06/30 09:43:06;;;;;;;7.45;1.85;;;;;;;30.93;38.31;101076.72;5113260;28;20040;-61
2022/06/30 09:45:42;;;;;;;8.63;1.90;;;;;;;30.86;37.68;101079.47;5113979;28;20038;-61
2022/06/30 09:48:12;;;;;;;8.43;1.63;;;;;;;30.84;37.78;101090.31;5113579;28;20067;-60
2022/06/30 09:50:39;;;;;;;8.82;2.22;;;;;;;30.77;37.92;101087.47;5113953;28;20036;-60
2022/06/30 09:53:12;;;;;;;6.93;1.70;;;;;;;31.07;36.69;101089.22;5113469;28;20064;-61
2022/06/30 09:55:40;;;;;;;6.35;1.60;;;;;;;30.97;37.23;101079.53;5113326;28;20073;-61
2022/06/30 09:58:07;;;;;;;5.70;1.98;;;;;;;30.89;36.84;101091.94;5113073;28;20107;-61
2022/06/30 10:00:50;;;;;;;7.00;1.52;;;;;;;30.87;37.16;101092.31;5113100;28;20039;-61
2022/06/30 10:03:18;;;;;;;11.75;1.75;;;;;;;30.86;37.29;101089.91;5113899;28;20085;-60
2022/06/30 10:05:51;;;;;;;8.65;1.95;;;;;;;30.82;36.65;101092.69;5073623;28;20053;-60
2022/06/30 10:08:19;;;;;;;11.43;1.98;;;;;;;30.74;37.03;101099.50;5073317;28;20028;-60
2022/06/30 10:10:46;;;;;;;11.90;2.58;;;;;;;30.48;37.78;101088.47;5073489;28;20036;-60
2022/06/30 10:13:15;;;;;;;8.38;1.90;;;;;;;30.55;37.21;101096.97;5072557;28;20037;-60
2022/06/30 10:15:47;;;;;;;8.57;2.00;;;;;;;30.57;37.38;101105.78;5072740;28;20028;-60
2022/06/30 10:18:16;;;;;;;10.20;2.05;;;;;;;30.57;37.17;101105.78;5072645;28;20085;-60
2022/06/30 10:20:45;;;;;;;10.30;1.98;;;;;;;30.53;37.06;101100.16;5073317;28;20105;-60
2022/06/30 10:23:13;;;;;;;6.75;1.98;;;;;;;30.54;37.04;101100.97;5072095;28;20035;-60
2022/06/30 10:25:41;;;;;;;9.90;2.25;;;;;;;30.55;36.51;101108.19;5073115;28;20086;-60
2022/06/30 10:28:10;;;;;;;9.32;2.00;;;;;;;30.60;36.30;101105.78;5072655;28;20072;-61
2022/06/30 10:30:46;;;;;;;7.22;2.17;;;;;;;30.65;35.63;101102.63;5073196;28;20420;-60
2022/06/30 10:33:43;;;;;;;6.63;2.00;;;;;;;30.75;35.05;101106.72;5073466;28;20145;-60
2022/06/30 10:36:37;;;;;;;7.53;2.13;;;;;;;31.03;33.50;101111.63;5073188;28;20037;-60
2022/06/30 10:39:11;;;;;;;6.30;1.83;;;;;;;30.94;34.28;101120.44;5073161;28;20086;-60
2022/06/30 10:41:47;;;;;;;5.97;1.65;;;;;;;30.84;34.05;101114.75;5073523;28;20368;-60
2022/06/30 10:44:32;;;;;;;5.35;2.25;;;;;;;30.80;33.64;101120.34;5073641;28;20532;-60
2022/06/30 10:46:59;;;;;;;4.90;1.77;;;;;;;30.98;33.29;101118.44;5073366;28;20059;-60
2022/06/30 10:49:28;;;;;;;7.18;2.30;;;;;;;31.07;33.10;101120.91;5072872;28;20412;-61
2022/06/30 10:52:16;;;;;;;10.52;2.00;;;;;;;31.02;33.80;101117.63;5072831;28;20119;-61
2022/06/30 10:54:45;;;;;;;6.20;2.13;;;;;;;31.06;32.91;101121.25;5072954;28;20037;-60
2022/06/30 10:57:18;;;;;;;8.75;2.38;;;;;;;31.03;33.09;101125.66;5072920;28;20074;-61
2022/06/30 10:59:45;;;;;;;8.50;2.20;;;;;;;31.03;32.60;101122.06;5072935;28;20028;-61
2022/06/30 11:02:11;;;;;;;13.15;2.10;;;;;;;31.01;32.05;101130.06;5072587;28;20052;-60
2022/06/30 11:04:40;;;;;;;8.52;1.98;;;;;;;31.09;32.05;101126.13;5088907;28;20077;-60
2022/06/30 11:07:11;;;;;;;10.38;2.70;;;;;;;31.03;32.32;101136.09;5113260;28;20020;-60
2022/06/30 11:09:47;;;;;;;13.38;2.70;;;;;;;31.03;32.46;101144.50;5113174;28;20062;-61
2022/06/30 11:12:19;;;;;;;10.77;2.60;;;;;;;31.03;32.30;101152.94;5113457;28;20493;-61
2022/06/30 11:14:51;;;;;;;10.13;2.83;;;;;;;31.05;32.22;101150.53;5113207;28;20520;-61
2022/06/30 11:17:21;;;;;;;11.07;2.67;;;;;;;31.01;32.39;101146.91;5113309;28;20088;-60
2022/06/30 11:19:59;;;;;;;15.75;2.65;;;;;;;30.96;32.22;101148.91;5113226;28;20050;-60
2022/06/30 11:22:28;;;;;;;13.55;2.63;;;;;;;31.05;32.28;101147.72;5113111;28;20038;-60
2022/06/30 11:24:58;;;;;;;9.68;2.38;;;;;;;30.97;32.40;101156.13;5113271;28;20086;-60
2022/06/30 11:27:28;;;;;;;10.90;2.72;;;;;;;30.85;32.40;101147.25;5113116;28;20035;-60
2022/06/30 11:30:00;;;;;;;8.88;2.17;;;;;;;30.82;32.59;101151.63;5112907;28;20063;-60
2022/06/30 11:32:27;;;;;;;12.38;2.65;;;;;;;30.71;32.86;101158.41;5113203;28;20118;-60
2022/06/30 11:34:56;;;;;;;16.23;2.35;;;;;;;30.61;33.15;101134.66;5103882;28;20055;-60